メインページ
METAR-TAF:

METAR-TAF

空港 :

Smithers, ブリティッシュコロンビア州, カナダ

緯度: 54-49N, 経度: 127-11W, 海抜: 523m

現時点の気象観測

当レポートは9分前の02:41(UTC)に作成
の風 2kt
気温 10°C
湿度 76%
気圧 998 hPa
視程: 40.2km
高度6000ftの千切れ雲あり

METAR: CYYD 260241Z 18002KT 25SM BKN060 10/06 A2947 RMK SC7 SLP989 DENSITY ALT 2100FT

時間: 19:50 (02:50 UTC)

予報

当レポートは2時間12分前の00:38(UTC)に作成
予報は26日の 01時(UTC)から 26日の 06時(UTC)まで有効
の風 8kt
視程: 10km
高度6000ftの千切れ雲あり
26日の 01時(UTC)から 26日の 06時(UTC)まで一時的に
視程: 10km
高度1000ftの雲は散在している
高度4000ftの千切れ雲あり
弱いにわか雨
26日の 01時(UTC)から 26日の 03時(UTC)まで徐々に
変向風 3kt

TAF: CYYD 260038Z 2601/2606 17008KT P6SM BKN060 TEMPO 2601/2606 P6SM -SHRA SCT010 BKN040 BECMG 2601/2603 VRB03KT RMK NXT FCST WILL BE ISSUED AT 261345Z

4,000以上の空港の気象観測と天気予報(METAR報とTAF報)

利用可能な観測所は地図上に黄色い丸と赤い丸で示す。

丸の上にカーソルを重ねると観測所名を参照できる。

次にクリックすると気象観測と天気予報を参照できる。

マップの切り替え:黒色「×」印の緑ボタンをクリックして拡大、「-」印の緑ボタンをクリックして縮小、緑色の三角印をクリックして隣りの地図に切り替え


METAR-TAF: